sensor_id;sensor_type;location;lat;lon;timestamp;P1;durP1;ratioP1;P2;durP2;ratioP2
75274;SDS011;63871;47.216;39.684;2023-06-14T00:01:48;15.95;;;6.50;;
75274;SDS011;63871;47.216;39.684;2023-06-14T00:04:14;12.50;;;5.70;;
75274;SDS011;63871;47.216;39.684;2023-06-14T00:07:17;13.82;;;5.72;;
75274;SDS011;63871;47.216;39.684;2023-06-14T00:09:44;13.30;;;6.25;;
75274;SDS011;63871;47.216;39.684;2023-06-14T00:12:09;16.52;;;7.47;;
75274;SDS011;63871;47.216;39.684;2023-06-14T00:14:35;11.80;;;5.95;;
75274;SDS011;63871;47.216;39.684;2023-06-14T00:17:01;11.20;;;6.03;;
75274;SDS011;63871;47.216;39.684;2023-06-14T00:19:27;16.42;;;6.85;;
75274;SDS011;63871;47.216;39.684;2023-06-14T00:21:54;16.23;;;6.90;;
75274;SDS011;63871;47.216;39.684;2023-06-14T00:24:39;11.48;;;5.57;;
75274;SDS011;63871;47.216;39.684;2023-06-14T00:27:42;13.65;;;6.18;;
75274;SDS011;63871;47.216;39.684;2023-06-14T00:30:08;11.68;;;6.30;;
75274;SDS011;63871;47.216;39.684;2023-06-14T00:32:34;11.68;;;6.25;;
75274;SDS011;63871;47.216;39.684;2023-06-14T00:35:00;14.13;;;6.53;;
75274;SDS011;63871;47.216;39.684;2023-06-14T00:37:26;14.90;;;7.00;;
75274;SDS011;63871;47.216;39.684;2023-06-14T00:39:51;15.07;;;6.57;;
75274;SDS011;63871;47.216;39.684;2023-06-14T00:42:27;13.65;;;7.80;;
75274;SDS011;63871;47.216;39.684;2023-06-14T00:44:54;15.45;;;6.38;;
75274;SDS011;63871;47.216;39.684;2023-06-14T00:47:20;16.95;;;6.97;;
75274;SDS011;63871;47.216;39.684;2023-06-14T00:52:34;12.25;;;5.90;;
75274;SDS011;63871;47.216;39.684;2023-06-14T00:55:00;15.15;;;6.60;;
75274;SDS011;63871;47.216;39.684;2023-06-14T00:57:28;11.48;;;5.68;;
75274;SDS011;63871;47.216;39.684;2023-06-14T01:00:13;11.13;;;5.90;;
75274;SDS011;63871;47.216;39.684;2023-06-14T01:02:39;15.30;;;6.60;;
75274;SDS011;63871;47.216;39.684;2023-06-14T01:05:08;13.02;;;6.25;;
75274;SDS011;63871;47.216;39.684;2023-06-14T01:13:21;11.35;;;6.15;;
75274;SDS011;63871;47.216;39.684;2023-06-14T01:15:53;15.02;;;6.82;;
75274;SDS011;63871;47.216;39.684;2023-06-14T01:18:20;14.32;;;6.03;;
75274;SDS011;63871;47.216;39.684;2023-06-14T01:20:49;13.88;;;6.97;;
75274;SDS011;63871;47.216;39.684;2023-06-14T01:23:19;12.43;;;6.63;;
75274;SDS011;63871;47.216;39.684;2023-06-14T01:26:04;12.60;;;6.35;;
75274;SDS011;63871;47.216;39.684;2023-06-14T01:28:30;11.98;;;6.93;;
75274;SDS011;63871;47.216;39.684;2023-06-14T01:31:00;13.90;;;7.00;;
75274;SDS011;63871;47.216;39.684;2023-06-14T01:33:29;15.15;;;6.82;;
75274;SDS011;63871;47.216;39.684;2023-06-14T01:35:57;10.90;;;6.55;;
75274;SDS011;63871;47.216;39.684;2023-06-14T01:38:25;11.00;;;6.40;;
75274;SDS011;63871;47.216;39.684;2023-06-14T01:40:51;10.68;;;6.28;;
75274;SDS011;63871;47.216;39.684;2023-06-14T01:43:19;11.50;;;6.10;;
75274;SDS011;63871;47.216;39.684;2023-06-14T01:45:46;14.35;;;6.20;;
75274;SDS011;63871;47.216;39.684;2023-06-14T01:48:17;11.18;;;5.55;;
75274;SDS011;63871;47.216;39.684;2023-06-14T01:50:44;10.45;;;5.78;;
75274;SDS011;63871;47.216;39.684;2023-06-14T01:53:10;8.40;;;5.78;;
75274;SDS011;63871;47.216;39.684;2023-06-14T01:55:36;11.38;;;5.60;;
75274;SDS011;63871;47.216;39.684;2023-06-14T01:58:06;12.40;;;5.80;;
75274;SDS011;63871;47.216;39.684;2023-06-14T02:00:32;11.18;;;6.43;;
75274;SDS011;63871;47.216;39.684;2023-06-14T02:02:58;10.60;;;5.57;;
75274;SDS011;63871;47.216;39.684;2023-06-14T02:05:25;13.20;;;5.93;;
75274;SDS011;63871;47.216;39.684;2023-06-14T02:08:10;16.25;;;5.78;;
75274;SDS011;63871;47.216;39.684;2023-06-14T02:10:36;10.70;;;5.82;;
75274;SDS011;63871;47.216;39.684;2023-06-14T02:13:02;16.77;;;5.53;;
75274;SDS011;63871;47.216;39.684;2023-06-14T02:15:28;8.00;;;5.00;;
75274;SDS011;63871;47.216;39.684;2023-06-14T02:18:00;9.43;;;5.18;;
75274;SDS011;63871;47.216;39.684;2023-06-14T02:20:27;10.75;;;6.40;;
75274;SDS011;63871;47.216;39.684;2023-06-14T02:22:53;14.48;;;5.43;;
75274;SDS011;63871;47.216;39.684;2023-06-14T02:28:06;8.77;;;5.57;;
75274;SDS011;63871;47.216;39.684;2023-06-14T02:30:50;9.75;;;5.40;;
75274;SDS011;63871;47.216;39.684;2023-06-14T02:33:16;12.75;;;5.50;;
75274;SDS011;63871;47.216;39.684;2023-06-14T02:35:42;12.23;;;5.63;;
75274;SDS011;63871;47.216;39.684;2023-06-14T02:38:08;13.18;;;4.90;;
75274;SDS011;63871;47.216;39.684;2023-06-14T02:40:34;9.32;;;5.70;;
75274;SDS011;63871;47.216;39.684;2023-06-14T02:43:00;10.65;;;5.25;;
75274;SDS011;63871;47.216;39.684;2023-06-14T02:45:27;12.15;;;6.15;;
75274;SDS011;63871;47.216;39.684;2023-06-14T02:47:53;9.18;;;5.47;;
75274;SDS011;63871;47.216;39.684;2023-06-14T02:50:20;11.68;;;5.50;;
75274;SDS011;63871;47.216;39.684;2023-06-14T02:52:47;11.65;;;5.22;;
75274;SDS011;63871;47.216;39.684;2023-06-14T02:55:32;10.05;;;5.32;;
75274;SDS011;63871;47.216;39.684;2023-06-14T02:57:59;11.43;;;5.22;;
75274;SDS011;63871;47.216;39.684;2023-06-14T03:00:25;11.93;;;5.40;;
75274;SDS011;63871;47.216;39.684;2023-06-14T03:02:51;9.15;;;4.43;;
75274;SDS011;63871;47.216;39.684;2023-06-14T03:05:19;8.20;;;4.63;;
75274;SDS011;63871;47.216;39.684;2023-06-14T03:07:48;9.13;;;4.78;;
75274;SDS011;63871;47.216;39.684;2023-06-14T03:10:16;10.15;;;5.15;;
75274;SDS011;63871;47.216;39.684;2023-06-14T03:12:43;8.95;;;4.95;;
75274;SDS011;63871;47.216;39.684;2023-06-14T03:18:14;12.52;;;5.18;;
75274;SDS011;63871;47.216;39.684;2023-06-14T03:20:40;10.93;;;4.90;;
75274;SDS011;63871;47.216;39.684;2023-06-14T03:23:08;9.00;;;5.20;;
75274;SDS011;63871;47.216;39.684;2023-06-14T03:25:34;9.27;;;4.88;;
75274;SDS011;63871;47.216;39.684;2023-06-14T03:28:04;12.98;;;4.97;;
75274;SDS011;63871;47.216;39.684;2023-06-14T03:30:31;7.20;;;3.97;;
75274;SDS011;63871;47.216;39.684;2023-06-14T03:32:58;11.88;;;4.63;;
75274;SDS011;63871;47.216;39.684;2023-06-14T03:35:28;10.10;;;4.53;;
75274;SDS011;63871;47.216;39.684;2023-06-14T03:37:54;9.82;;;4.68;;
75274;SDS011;63871;47.216;39.684;2023-06-14T03:40:20;9.18;;;4.70;;
75274;SDS011;63871;47.216;39.684;2023-06-14T03:43:06;13.85;;;4.97;;
75274;SDS011;63871;47.216;39.684;2023-06-14T03:45:31;12.75;;;4.30;;
75274;SDS011;63871;47.216;39.684;2023-06-14T03:47:58;8.25;;;4.57;;
75274;SDS011;63871;47.216;39.684;2023-06-14T03:50:26;7.07;;;4.72;;
75274;SDS011;63871;47.216;39.684;2023-06-14T03:52:52;8.70;;;4.68;;
75274;SDS011;63871;47.216;39.684;2023-06-14T03:55:19;9.05;;;4.68;;
75274;SDS011;63871;47.216;39.684;2023-06-14T03:58:25;9.05;;;4.70;;
75274;SDS011;63871;47.216;39.684;2023-06-14T04:00:50;11.05;;;4.53;;
75274;SDS011;63871;47.216;39.684;2023-06-14T04:03:16;8.88;;;5.28;;
75274;SDS011;63871;47.216;39.684;2023-06-14T04:05:42;11.55;;;4.80;;
75274;SDS011;63871;47.216;39.684;2023-06-14T04:08:09;10.80;;;4.90;;
75274;SDS011;63871;47.216;39.684;2023-06-14T04:10:36;10.02;;;5.30;;
75274;SDS011;63871;47.216;39.684;2023-06-14T04:13:01;13.98;;;4.80;;
75274;SDS011;63871;47.216;39.684;2023-06-14T04:15:27;16.50;;;5.10;;
75274;SDS011;63871;47.216;39.684;2023-06-14T04:17:55;7.70;;;4.90;;
75274;SDS011;63871;47.216;39.684;2023-06-14T04:20:22;10.32;;;4.85;;
75274;SDS011;63871;47.216;39.684;2023-06-14T04:22:51;10.93;;;5.55;;
75274;SDS011;63871;47.216;39.684;2023-06-14T04:25:18;13.48;;;4.80;;
75274;SDS011;63871;47.216;39.684;2023-06-14T04:27:44;11.10;;;4.50;;
75274;SDS011;63871;47.216;39.684;2023-06-14T04:30:10;10.75;;;4.72;;
75274;SDS011;63871;47.216;39.684;2023-06-14T04:32:41;8.15;;;4.40;;
75274;SDS011;63871;47.216;39.684;2023-06-14T04:35:10;10.10;;;4.40;;
75274;SDS011;63871;47.216;39.684;2023-06-14T04:37:38;10.20;;;4.53;;
75274;SDS011;63871;47.216;39.684;2023-06-14T04:40:08;8.95;;;4.30;;
75274;SDS011;63871;47.216;39.684;2023-06-14T04:42:36;8.43;;;4.30;;
75274;SDS011;63871;47.216;39.684;2023-06-14T04:45:04;8.93;;;4.40;;
75274;SDS011;63871;47.216;39.684;2023-06-14T04:47:32;8.55;;;4.28;;
75274;SDS011;63871;47.216;39.684;2023-06-14T04:49:59;14.43;;;5.10;;
75274;SDS011;63871;47.216;39.684;2023-06-14T04:52:28;10.65;;;4.97;;
75274;SDS011;63871;47.216;39.684;2023-06-14T04:54:55;13.30;;;4.95;;
75274;SDS011;63871;47.216;39.684;2023-06-14T04:57:22;11.88;;;4.50;;
75274;SDS011;63871;47.216;39.684;2023-06-14T04:59:49;11.35;;;5.68;;
75274;SDS011;63871;47.216;39.684;2023-06-14T05:02:21;10.32;;;5.18;;
75274;SDS011;63871;47.216;39.684;2023-06-14T05:04:51;9.70;;;4.88;;
75274;SDS011;63871;47.216;39.684;2023-06-14T05:07:18;9.43;;;4.38;;
75274;SDS011;63871;47.216;39.684;2023-06-14T05:09:47;11.70;;;4.50;;
75274;SDS011;63871;47.216;39.684;2023-06-14T05:12:13;9.77;;;4.40;;
75274;SDS011;63871;47.216;39.684;2023-06-14T05:14:43;7.35;;;4.50;;
75274;SDS011;63871;47.216;39.684;2023-06-14T05:17:09;9.48;;;4.40;;
75274;SDS011;63871;47.216;39.684;2023-06-14T05:19:35;8.88;;;4.80;;
75274;SDS011;63871;47.216;39.684;2023-06-14T05:22:01;8.48;;;4.80;;
75274;SDS011;63871;47.216;39.684;2023-06-14T05:24:28;10.25;;;4.88;;
75274;SDS011;63871;47.216;39.684;2023-06-14T05:26:55;9.65;;;4.68;;
75274;SDS011;63871;47.216;39.684;2023-06-14T05:29:22;8.48;;;4.40;;
75274;SDS011;63871;47.216;39.684;2023-06-14T05:31:47;8.60;;;3.95;;
75274;SDS011;63871;47.216;39.684;2023-06-14T05:34:13;10.15;;;4.32;;
75274;SDS011;63871;47.216;39.684;2023-06-14T05:36:39;8.27;;;4.55;;
75274;SDS011;63871;47.216;39.684;2023-06-14T05:39:05;9.27;;;4.28;;
75274;SDS011;63871;47.216;39.684;2023-06-14T05:41:32;11.20;;;4.68;;
75274;SDS011;63871;47.216;39.684;2023-06-14T05:43:57;8.77;;;4.05;;
75274;SDS011;63871;47.216;39.684;2023-06-14T05:46:25;11.73;;;4.40;;
75274;SDS011;63871;47.216;39.684;2023-06-14T05:48:51;10.45;;;5.22;;
75274;SDS011;63871;47.216;39.684;2023-06-14T05:51:17;9.65;;;4.35;;
75274;SDS011;63871;47.216;39.684;2023-06-14T05:53:46;8.60;;;3.83;;
75274;SDS011;63871;47.216;39.684;2023-06-14T05:56:12;9.43;;;3.97;;
75274;SDS011;63871;47.216;39.684;2023-06-14T05:58:43;11.00;;;4.30;;
75274;SDS011;63871;47.216;39.684;2023-06-14T06:01:10;8.02;;;5.00;;
75274;SDS011;63871;47.216;39.684;2023-06-14T06:03:35;9.27;;;4.05;;
75274;SDS011;63871;47.216;39.684;2023-06-14T06:06:01;14.38;;;4.47;;
75274;SDS011;63871;47.216;39.684;2023-06-14T06:08:28;9.48;;;4.05;;
75274;SDS011;63871;47.216;39.684;2023-06-14T06:10:55;11.02;;;4.85;;
75274;SDS011;63871;47.216;39.684;2023-06-14T06:13:21;8.18;;;4.60;;
75274;SDS011;63871;47.216;39.684;2023-06-14T06:15:47;9.93;;;4.40;;
75274;SDS011;63871;47.216;39.684;2023-06-14T06:18:13;8.77;;;4.30;;
75274;SDS011;63871;47.216;39.684;2023-06-14T06:20:39;6.45;;;4.25;;
75274;SDS011;63871;47.216;39.684;2023-06-14T06:23:04;10.68;;;3.95;;
75274;SDS011;63871;47.216;39.684;2023-06-14T06:25:30;8.02;;;4.40;;
75274;SDS011;63871;47.216;39.684;2023-06-14T06:27:57;10.60;;;4.53;;
75274;SDS011;63871;47.216;39.684;2023-06-14T06:30:23;13.82;;;7.43;;
75274;SDS011;63871;47.216;39.684;2023-06-14T06:32:49;11.35;;;6.20;;
75274;SDS011;63871;47.216;39.684;2023-06-14T06:35:16;22.25;;;10.98;;
75274;SDS011;63871;47.216;39.684;2023-06-14T06:37:42;23.10;;;10.15;;
75274;SDS011;63871;47.216;39.684;2023-06-14T06:40:08;14.80;;;6.63;;
75274;SDS011;63871;47.216;39.684;2023-06-14T06:42:35;14.05;;;7.38;;
75274;SDS011;63871;47.216;39.684;2023-06-14T06:45:04;13.25;;;6.90;;
75274;SDS011;63871;47.216;39.684;2023-06-14T06:47:30;9.23;;;4.45;;
75274;SDS011;63871;47.216;39.684;2023-06-14T06:49:56;9.75;;;3.90;;
75274;SDS011;63871;47.216;39.684;2023-06-14T06:52:22;9.18;;;4.43;;
75274;SDS011;63871;47.216;39.684;2023-06-14T06:55:06;9.80;;;5.18;;
75274;SDS011;63871;47.216;39.684;2023-06-14T06:57:34;14.88;;;5.68;;
75274;SDS011;63871;47.216;39.684;2023-06-14T06:59:59;11.07;;;6.13;;
75274;SDS011;63871;47.216;39.684;2023-06-14T07:02:25;15.52;;;6.38;;
75274;SDS011;63871;47.216;39.684;2023-06-14T07:04:51;15.77;;;6.47;;
75274;SDS011;63871;47.216;39.684;2023-06-14T07:07:17;11.90;;;5.00;;
75274;SDS011;63871;47.216;39.684;2023-06-14T07:09:43;12.23;;;4.75;;
75274;SDS011;63871;47.216;39.684;2023-06-14T07:12:11;7.68;;;4.20;;
75274;SDS011;63871;47.216;39.684;2023-06-14T07:14:37;15.30;;;5.13;;
75274;SDS011;63871;47.216;39.684;2023-06-14T07:17:02;12.00;;;6.15;;
75274;SDS011;63871;47.216;39.684;2023-06-14T07:19:28;13.95;;;6.50;;
75274;SDS011;63871;47.216;39.684;2023-06-14T07:21:55;9.75;;;4.65;;
75274;SDS011;63871;47.216;39.684;2023-06-14T07:24:22;9.13;;;4.15;;
75274;SDS011;63871;47.216;39.684;2023-06-14T07:26:47;16.90;;;6.18;;
75274;SDS011;63871;47.216;39.684;2023-06-14T07:29:14;29.00;;;12.63;;
75274;SDS011;63871;47.216;39.684;2023-06-14T07:31:41;61.40;;;27.30;;
75274;SDS011;63871;47.216;39.684;2023-06-14T07:34:07;104.97;;;54.03;;
75274;SDS011;63871;47.216;39.684;2023-06-14T07:36:33;62.40;;;29.92;;
75274;SDS011;63871;47.216;39.684;2023-06-14T07:38:59;135.07;;;67.15;;
75274;SDS011;63871;47.216;39.684;2023-06-14T07:41:25;30.23;;;11.63;;
75274;SDS011;63871;47.216;39.684;2023-06-14T07:43:50;18.70;;;9.63;;
75274;SDS011;63871;47.216;39.684;2023-06-14T07:46:16;21.83;;;12.32;;
75274;SDS011;63871;47.216;39.684;2023-06-14T07:48:42;17.05;;;7.32;;
75274;SDS011;63871;47.216;39.684;2023-06-14T07:51:08;16.65;;;8.32;;
75274;SDS011;63871;47.216;39.684;2023-06-14T07:53:33;15.32;;;4.53;;
75274;SDS011;63871;47.216;39.684;2023-06-14T07:55:59;14.38;;;4.90;;
75274;SDS011;63871;47.216;39.684;2023-06-14T07:58:25;10.77;;;5.70;;
75274;SDS011;63871;47.216;39.684;2023-06-14T08:00:51;8.07;;;4.53;;
75274;SDS011;63871;47.216;39.684;2023-06-14T08:03:17;12.85;;;4.38;;
75274;SDS011;63871;47.216;39.684;2023-06-14T08:05:43;8.95;;;4.55;;
75274;SDS011;63871;47.216;39.684;2023-06-14T08:08:09;9.05;;;4.60;;
75274;SDS011;63871;47.216;39.684;2023-06-14T08:10:35;11.30;;;3.60;;
75274;SDS011;63871;47.216;39.684;2023-06-14T08:13:01;10.15;;;4.32;;
75274;SDS011;63871;47.216;39.684;2023-06-14T08:15:27;6.75;;;3.63;;
75274;SDS011;63871;47.216;39.684;2023-06-14T08:17:52;6.53;;;3.80;;
75274;SDS011;63871;47.216;39.684;2023-06-14T08:20:18;7.40;;;3.55;;
75274;SDS011;63871;47.216;39.684;2023-06-14T08:22:44;9.65;;;3.80;;
75274;SDS011;63871;47.216;39.684;2023-06-14T08:25:11;9.55;;;3.95;;
75274;SDS011;63871;47.216;39.684;2023-06-14T08:27:37;8.35;;;4.13;;
75274;SDS011;63871;47.216;39.684;2023-06-14T08:30:03;8.63;;;3.95;;
75274;SDS011;63871;47.216;39.684;2023-06-14T08:32:29;6.97;;;4.18;;
75274;SDS011;63871;47.216;39.684;2023-06-14T08:34:54;11.27;;;4.38;;
75274;SDS011;63871;47.216;39.684;2023-06-14T08:37:20;9.82;;;4.53;;
75274;SDS011;63871;47.216;39.684;2023-06-14T08:39:46;11.35;;;4.15;;
75274;SDS011;63871;47.216;39.684;2023-06-14T08:42:12;8.10;;;3.90;;
75274;SDS011;63871;47.216;39.684;2023-06-14T08:44:39;17.33;;;4.57;;
75274;SDS011;63871;47.216;39.684;2023-06-14T08:47:05;6.38;;;3.08;;
75274;SDS011;63871;47.216;39.684;2023-06-14T08:49:33;8.05;;;3.75;;
75274;SDS011;63871;47.216;39.684;2023-06-14T08:52:00;16.52;;;4.72;;
75274;SDS011;63871;47.216;39.684;2023-06-14T08:54:29;11.13;;;3.78;;
75274;SDS011;63871;47.216;39.684;2023-06-14T08:56:59;11.75;;;3.78;;
75274;SDS011;63871;47.216;39.684;2023-06-14T08:59:28;10.32;;;4.60;;
75274;SDS011;63871;47.216;39.684;2023-06-14T09:01:56;10.68;;;3.42;;
75274;SDS011;63871;47.216;39.684;2023-06-14T09:04:22;6.90;;;3.70;;
75274;SDS011;63871;47.216;39.684;2023-06-14T09:06:57;8.77;;;4.70;;
75274;SDS011;63871;47.216;39.684;2023-06-14T09:09:24;13.75;;;4.05;;
75274;SDS011;63871;47.216;39.684;2023-06-14T09:11:51;9.73;;;4.15;;
75274;SDS011;63871;47.216;39.684;2023-06-14T09:14:21;11.82;;;3.63;;
75274;SDS011;63871;47.216;39.684;2023-06-14T09:16:52;6.55;;;3.47;;
75274;SDS011;63871;47.216;39.684;2023-06-14T09:19:21;9.20;;;3.42;;
75274;SDS011;63871;47.216;39.684;2023-06-14T09:21:49;8.82;;;3.38;;
75274;SDS011;63871;47.216;39.684;2023-06-14T09:24:17;8.00;;;3.50;;
75274;SDS011;63871;47.216;39.684;2023-06-14T09:26:42;9.70;;;3.38;;
75274;SDS011;63871;47.216;39.684;2023-06-14T09:29:09;6.07;;;3.20;;
75274;SDS011;63871;47.216;39.684;2023-06-14T09:31:35;9.50;;;3.35;;
75274;SDS011;63871;47.216;39.684;2023-06-14T09:34:02;6.15;;;3.20;;
75274;SDS011;63871;47.216;39.684;2023-06-14T09:36:28;10.57;;;3.40;;
75274;SDS011;63871;47.216;39.684;2023-06-14T09:38:57;6.05;;;3.15;;
75274;SDS011;63871;47.216;39.684;2023-06-14T09:41:34;9.45;;;3.40;;
75274;SDS011;63871;47.216;39.684;2023-06-14T09:44:05;9.23;;;3.22;;
75274;SDS011;63871;47.216;39.684;2023-06-14T09:46:32;11.88;;;3.45;;
75274;SDS011;63871;47.216;39.684;2023-06-14T09:48:58;8.13;;;3.50;;
75274;SDS011;63871;47.216;39.684;2023-06-14T09:51:25;9.95;;;3.08;;
75274;SDS011;63871;47.216;39.684;2023-06-14T09:53:52;6.93;;;3.22;;
75274;SDS011;63871;47.216;39.684;2023-06-14T09:56:26;7.63;;;3.50;;
75274;SDS011;63871;47.216;39.684;2023-06-14T09:58:58;10.70;;;3.40;;
75274;SDS011;63871;47.216;39.684;2023-06-14T10:01:24;8.10;;;3.60;;
75274;SDS011;63871;47.216;39.684;2023-06-14T10:04:05;12.05;;;3.65;;
75274;SDS011;63871;47.216;39.684;2023-06-14T10:06:32;10.88;;;3.80;;
75274;SDS011;63871;47.216;39.684;2023-06-14T10:09:08;12.93;;;3.83;;
75274;SDS011;63871;47.216;39.684;2023-06-14T10:11:36;7.85;;;3.42;;
75274;SDS011;63871;47.216;39.684;2023-06-14T10:14:05;5.50;;;3.00;;
75274;SDS011;63871;47.216;39.684;2023-06-14T10:16:33;8.32;;;3.25;;
75274;SDS011;63871;47.216;39.684;2023-06-14T10:21:33;6.60;;;2.88;;
75274;SDS011;63871;47.216;39.684;2023-06-14T10:24:23;8.68;;;3.47;;
75274;SDS011;63871;47.216;39.684;2023-06-14T10:26:59;6.35;;;3.28;;
75274;SDS011;63871;47.216;39.684;2023-06-14T10:29:28;9.30;;;3.55;;
75274;SDS011;63871;47.216;39.684;2023-06-14T10:31:58;6.40;;;3.65;;
75274;SDS011;63871;47.216;39.684;2023-06-14T10:34:25;7.07;;;3.80;;
75274;SDS011;63871;47.216;39.684;2023-06-14T10:37:04;11.38;;;4.05;;
75274;SDS011;63871;47.216;39.684;2023-06-14T10:39:36;9.27;;;3.72;;
75274;SDS011;63871;47.216;39.684;2023-06-14T10:42:09;13.73;;;4.28;;
75274;SDS011;63871;47.216;39.684;2023-06-14T10:44:51;13.45;;;4.18;;
75274;SDS011;63871;47.216;39.684;2023-06-14T10:47:29;8.85;;;3.80;;
75274;SDS011;63871;47.216;39.684;2023-06-14T10:52:33;8.00;;;3.58;;
75274;SDS011;63871;47.216;39.684;2023-06-14T10:55:04;10.13;;;3.53;;
75274;SDS011;63871;47.216;39.684;2023-06-14T10:57:38;11.13;;;4.13;;
75274;SDS011;63871;47.216;39.684;2023-06-14T11:00:11;7.88;;;3.33;;
75274;SDS011;63871;47.216;39.684;2023-06-14T11:11:12;10.43;;;4.05;;
75274;SDS011;63871;47.216;39.684;2023-06-14T11:13:42;7.75;;;3.63;;
75274;SDS011;63871;47.216;39.684;2023-06-14T11:16:19;11.88;;;4.18;;
75274;SDS011;63871;47.216;39.684;2023-06-14T11:18:44;6.32;;;3.35;;
75274;SDS011;63871;47.216;39.684;2023-06-14T11:21:17;11.88;;;3.83;;
75274;SDS011;63871;47.216;39.684;2023-06-14T11:23:52;10.32;;;4.18;;
75274;SDS011;63871;47.216;39.684;2023-06-14T11:26:29;11.07;;;4.65;;
